Flight Track Log - Related Links

Times and Time Zones

All times are in EDT time to prevent confusion due to time zone crossing. See the SKW5207 flight status page for this flight to view local times or setup timezone preferences in your user account.

Time Position Orientation Groundspeed Altitude Reporting Facility
EDT Latitude Longitude Course Direction KTS MPH feet Rate Location/Type
Thu 07:37:15 PM 29.9758 -95.3031 North 183 211 600  Level Houston Center
Thu 07:38:41 PM 30.0556 -95.2939 339° North 287 330 3,300 2,286 Climbing Houston Center
Thu 07:39:42 PM 30.1278 -95.3253 328° Northwest 284 327 6,200 2,803 Climbing Houston Center
Thu 07:40:43 PM 30.2033 -95.3808 325° Northwest 304 350 9,000 2,447 Climbing Houston Center
Thu 07:42:14 PM 30.3033 -95.4614 324° Northwest 340 391 12,400 1,947 Climbing Houston Center
Thu 07:43:14 PM 30.3831 -95.5294 325° Northwest 346 398 13,900 1,750 Climbing Houston Center
Thu 07:44:14 PM 30.4686 -95.5978 326° Northwest 359 413 15,900 2,200 Climbing Houston Center
Thu 07:45:14 PM 30.5564 -95.6661 335° Northwest 371 427 18,300 2,450 Climbing Houston Center
Thu 07:46:14 PM 30.6528 -95.7183 336° Northwest 377 434 20,800 1,950 Climbing Houston Center
Thu 07:47:14 PM 30.7597 -95.7733 335° Northwest 377 434 22,200 1,400 Climbing Houston Center
Thu 07:48:14 PM 30.8603 -95.8283 336° Northwest 383 441 23,600 1,350 Climbing Houston Center
Thu 07:49:14 PM 30.9647 -95.8833 335° Northwest 395 455 24,900 1,096 Climbing Houston Center
Thu 07:50:09 PM 31.0417 -95.9247 340° North 415 478 25,700 1,138 Climbing Fort Worth Center
Thu 07:51:10 PM 31.1758 -95.9808 349° North 431 496 27,100 1,091 Climbing Fort Worth Center
Thu 07:52:10 PM 31.2931 -96.0083 North 426 490 27,900 1,150 Climbing Fort Worth Center
Thu 07:53:10 PM 31.4161 -95.9967 North 432 497 29,400 1,400 Climbing Fort Worth Center
Thu 07:54:10 PM 31.5372 -95.9800 North 437 503 30,700 1,000 Climbing Fort Worth Center
Thu 07:55:10 PM 31.6581 -95.9589 359° North 438 504 31,400 750 Climbing Fort Worth Center
Thu 07:56:10 PM 31.7853 -95.9617 352° North 450 518 32,200 800 Climbing Fort Worth Center
Thu 07:57:10 PM 31.8961 -95.9794 352° North 443 510 33,000 950 Climbing Fort Worth Center
Thu 07:58:10 PM 32.0197 -95.9994 354° North 443 510 34,100 1,000 Climbing Fort Worth Center
Thu 07:59:10 PM 32.1450 -96.0147 351° North 450 518 35,000 850 Climbing Fort Worth Center
Thu 08:00:10 PM 32.2664 -96.0375 353° North 450 518 35,800 950 Climbing Fort Worth Center
Thu 08:01:10 PM 32.3772 -96.0531 357° North 445 512 36,900 600 Climbing Fort Worth Center
Thu 08:02:10 PM 32.5256 -96.0631 359° North 445 512 37,000 50 Climbing Fort Worth Center
Thu 08:03:10 PM 32.6550 -96.0661 359° North 453 521 37,000  Level Fort Worth Center
Thu 08:04:10 PM 32.7867 -96.0692 360° North 460 529 37,000  Level Fort Worth Center
Thu 08:05:10 PM 32.9119 -96.0697 359° North 451 519 37,000  Level Fort Worth Center
Thu 08:06:10 PM 33.0392 -96.0728 359° North 451 519 37,000  Level Fort Worth Center
Thu 08:07:10 PM 33.1667 -96.0758 359° North 457 526 37,000  Level Fort Worth Center
Thu 08:08:10 PM 33.2939 -96.0789 360° North 457 526 37,000  Level Fort Worth Center
Thu 08:09:10 PM 33.4192 -96.0794 359° North 450 518 37,000  Level Fort Worth Center
Thu 08:10:10 PM 33.5464 -96.0825 358° North 450 518 37,000  Level Fort Worth Center
Thu 08:11:10 PM 33.6717 -96.0881 North 450 518 37,000  Level Fort Worth Center
Thu 08:12:10 PM 33.7992 -96.0861 359° North 450 518 37,000  Level Fort Worth Center
Thu 08:13:10 PM 33.9286 -96.0892 359° North 455 524 37,000  Level Fort Worth Center
Thu 08:14:10 PM 34.0536 -96.0925 357° North 460 529 37,000  Level Fort Worth Center
Thu 08:15:10 PM 34.1603 -96.0983 360° North 450 518 37,000  Level Fort Worth Center
Thu 08:16:10 PM 34.2897 -96.0989 360° North 443 510 37,000  Level Fort Worth Center
Thu 08:17:10 PM 34.4169 -96.0994 360° North 448 516 37,000  Level Fort Worth Center
Thu 08:18:10 PM 34.5419 -96.1000 359° North 448 516 37,000  Level Fort Worth Center
Thu 08:19:10 PM 34.6778 -96.1031 359° North 448 516 37,000  Level Fort Worth Center
Thu 08:20:22 PM 34.8258 -96.1058 360° North 443 510 37,000  Level Fort Worth Center
Thu 08:21:22 PM 34.9489 -96.1064 359° North 443 510 37,000  Level Fort Worth Center
Thu 08:22:22 PM 35.0719 -96.1097 359° North 438 504 37,000  Level Fort Worth Center
Thu 08:23:22 PM 35.1972 -96.1128 360° North 443 510 37,000  Level Fort Worth Center
Thu 08:24:22 PM 35.3225 -96.1133 359° North 443 510 37,000  Level Fort Worth Center
Thu 08:25:59 PM 35.5283 -96.1164 360° North 434 499 37,000  Level Kansas City Center
Thu 08:26:59 PM 35.6556 -96.1164 358° North 440 506 37,000  Level Kansas City Center
Thu 08:27:59 PM 35.7847 -96.1217 358° North 446 513 37,000  Level Kansas City Center
Thu 08:28:59 PM 35.8975 -96.1267 359° North 451 519 37,000  Level Kansas City Center
Thu 08:29:59 PM 36.0267 -96.1292 359° North 451 519 37,000  Level Kansas City Center
Thu 08:30:59 PM 36.1539 -96.1319 359° North 456 525 37,000  Level Kansas City Center
Thu 08:31:59 PM 36.2792 -96.1344 North 456 525 37,000  Level Kansas City Center
Thu 08:32:59 PM 36.4042 -96.1319 358° North 456 525 37,000  Level Kansas City Center
Thu 08:33:59 PM 36.5294 -96.1372 360° North 451 519 37,000  Level Kansas City Center
Thu 08:34:59 PM 36.6506 -96.1369 359° North 445 512 37,000  Level Kansas City Center
Thu 08:35:59 PM 36.7694 -96.1394 359° North 434 499 37,000  Level Kansas City Center
Thu 08:36:59 PM 36.8903 -96.1422 359° North 434 499 37,000  Level Kansas City Center
Thu 08:37:59 PM 37.0111 -96.1447 360° North 429 494 37,000  Level Kansas City Center
Thu 08:38:59 PM 37.1322 -96.1447 359° North 429 494 37,000  Level Kansas City Center
Thu 08:39:59 PM 37.2553 -96.1472 359° North 429 494 37,000  Level Kansas City Center
Thu 08:40:59 PM 37.3783 -96.1500 360° North 435 501 37,000  Level Kansas City Center
Thu 08:41:59 PM 37.5097 -96.1503 359° North 435 501 37,000  Level Kansas City Center
Thu 08:42:59 PM 37.6328 -96.1528 358° North 440 506 37,000  Level Kansas City Center
Thu 08:43:59 PM 37.7411 -96.1578 359° North 434 499 37,000  Level Kansas City Center
Thu 08:44:59 PM 37.8578 -96.1606 359° North 428 493 37,000 -250 Level Kansas City Center
Thu 08:45:59 PM 37.9747 -96.1631 360° North 423 487 36,500 -500 Descending Kansas City Center
Thu 08:46:59 PM 38.1019 -96.1631 358° North 429 494 36,000 -250 Descending Kansas City Center
Thu 08:47:59 PM 38.2228 -96.1686 360° North 434 499 36,000  Level Kansas City Center
Thu 08:48:59 PM 38.3519 -96.1686 359° North 434 499 36,000  Level Kansas City Center
Thu 08:49:59 PM 38.4689 -96.1714 359° North 422 486 36,000  Level Kansas City Center
Thu 08:50:59 PM 38.5856 -96.1739 359° North 417 480 36,000  Level Kansas City Center
Thu 08:51:59 PM 38.6919 -96.1764 359° North 423 487 36,000  Level Kansas City Center
Thu 08:52:59 PM 38.8086 -96.1792 360° North 423 487 36,000  Level Kansas City Center
Thu 08:53:59 PM 38.9400 -96.1794 359° North 423 487 36,000 -350 Level Kansas City Center
Thu 08:54:59 PM 39.0650 -96.1822 359° North 423 487 35,300 -700 Descending Kansas City Center
Thu 08:55:59 PM 39.1753 -96.1847 360° North 442 509 34,600 -650 Descending Kansas City Center
Thu 08:56:59 PM 39.3025 -96.1850 359° North 442 509 34,000 -700 Descending Kansas City Center
Thu 08:57:59 PM 39.4400 -96.1883 358° North 442 509 33,200 -1,023 Descending Kansas City Center
Thu 08:59:55 PM 39.6636 -96.1969 359° North 441 507 31,000 -1,261 Descending Minneapolis Center
Thu 09:00:55 PM 39.7883 -96.1997 360° North 441 507 29,500 -3,500 Descending Minneapolis Center
Thu 09:01:55 PM 39.9153 -96.1997 359° North 441 507 24,000 -1,600 Descending Minneapolis Center
Thu 09:02:55 PM 40.0419 -96.2025 359° North 447 514 26,300  Climbing Minneapolis Center
Thu 09:03:55 PM 40.1686 -96.2053 North 447 514 24,000 -2,250 Descending Minneapolis Center
Thu 09:04:55 PM 40.2936 -96.1944 13° North 447 514 21,800 -2,364 Descending Minneapolis Center
Thu 09:05:34 PM 40.3797 -96.1681 North 438 504 20,100 -2,441 Descending Minneapolis Center
Thu 09:06:53 PM 40.5319 -96.1447 North 420 483 17,000 -2,100 Descending Minneapolis Center
Thu 09:07:54 PM 40.6447 -96.1358 North 387 445 15,200 -1,774 Descending Minneapolis Center
Thu 09:08:48 PM 40.7344 -96.1233 North 347 399 13,600 -1,722 Descending Minneapolis Center
Thu 09:09:49 PM 40.8200 -96.1106 North 320 368 11,900 -1,603 Descending Minneapolis Center
Thu 09:10:44 PM 40.8950 -96.1028 North 300 345 10,500 -1,721 Descending Minneapolis Center
Thu 09:11:51 PM 40.9869 -96.0903 North 285 328 8,400 -2,079 Descending Minneapolis Center
Thu 09:12:51 PM 41.0703 -96.0828 North 294 338 6,100 -1,645 Descending Minneapolis Center
Thu 09:13:55 PM 41.1497 -96.0697 North 295 339 5,000 -823 Descending Minneapolis Center
Thu 09:14:55 PM 41.2289 -96.0592 North 295 339 4,400 -750 Descending Minneapolis Center
Thu 09:15:55 PM 41.3103 -96.0517 North 295 339 3,500 -550 Descending Minneapolis Center
Thu 09:16:55 PM 41.3939 -96.0386 114° Southeast 290 334 3,300 -700 Descending Minneapolis Center
Thu 09:17:55 PM 41.3647 -95.9517 149° Southeast 129 148 2,100 -950 Descending Minneapolis Center
Thu 09:18:55 PM 41.3319 -95.9256 142° Southeast 88 101 1,400 -600 Descending Minneapolis Center
Thu 09:19:55 PM 41.3097 -95.9025 142° Southeast 88 101 900 -500 Descending Minneapolis Center

Login

Don't have an account? Register now (free) for customized features, flight alerts, and more!